Terminal Aerodrome Forecast
Issued by NWS Tampa Bay Area, FL

Home | Current Version | Previous Version | Text Only | Print | Product List | Glossary On
Versions: 1 2 3 4 5 6 7 8 9 10 11 12 13 14 15 16 17 18
000
FTUS42 KTBW 261748
TAFFMY
TAF
KFMY 261748Z 2618/2718 20012G18KT P6SM SCT030 BKN150
     FM270000 21005KT P6SM SCT020 BKN100
     FM271100 22003KT 6SM BR SCT015 BKN100
     FM271600 22016KT P6SM VCTS BKN020CB=

USA.gov is the U.S. government's official web portal to all federal, state and local government web resources and services.